sensor_id;sensor_type;location;lat;lon;timestamp;P1;durP1;ratioP1;P2;durP2;ratioP2
22230;SDS011;11284;48.086;-1.652;2022-12-16T00:02:19;8.40;;;3.20;;
22230;SDS011;11284;48.086;-1.652;2022-12-16T00:04:45;5.43;;;2.78;;
22230;SDS011;11284;48.086;-1.652;2022-12-16T00:07:11;9.68;;;3.55;;
22230;SDS011;11284;48.086;-1.652;2022-12-16T00:09:37;7.20;;;3.10;;
22230;SDS011;11284;48.086;-1.652;2022-12-16T00:12:03;5.88;;;2.85;;
22230;SDS011;11284;48.086;-1.652;2022-12-16T00:14:29;5.85;;;3.10;;
22230;SDS011;11284;48.086;-1.652;2022-12-16T00:16:55;6.28;;;3.15;;
22230;SDS011;11284;48.086;-1.652;2022-12-16T00:19:21;7.13;;;3.05;;
22230;SDS011;11284;48.086;-1.652;2022-12-16T00:21:47;6.68;;;2.97;;
22230;SDS011;11284;48.086;-1.652;2022-12-16T00:24:13;6.32;;;2.90;;
22230;SDS011;11284;48.086;-1.652;2022-12-16T00:26:39;7.35;;;3.45;;
22230;SDS011;11284;48.086;-1.652;2022-12-16T00:29:05;6.47;;;3.13;;
22230;SDS011;11284;48.086;-1.652;2022-12-16T00:31:31;6.30;;;3.03;;
22230;SDS011;11284;48.086;-1.652;2022-12-16T00:33:57;8.10;;;3.60;;
22230;SDS011;11284;48.086;-1.652;2022-12-16T00:36:23;6.78;;;3.67;;
22230;SDS011;11284;48.086;-1.652;2022-12-16T00:38:53;7.55;;;3.30;;
22230;SDS011;11284;48.086;-1.652;2022-12-16T00:41:19;7.53;;;3.85;;
22230;SDS011;11284;48.086;-1.652;2022-12-16T00:43:45;7.38;;;3.70;;
22230;SDS011;11284;48.086;-1.652;2022-12-16T00:46:11;7.53;;;3.80;;
22230;SDS011;11284;48.086;-1.652;2022-12-16T00:48:37;8.30;;;4.00;;
22230;SDS011;11284;48.086;-1.652;2022-12-16T00:51:04;8.18;;;3.50;;
22230;SDS011;11284;48.086;-1.652;2022-12-16T00:53:30;6.60;;;3.53;;
22230;SDS011;11284;48.086;-1.652;2022-12-16T00:56:09;8.95;;;4.30;;
22230;SDS011;11284;48.086;-1.652;2022-12-16T00:58:35;6.57;;;3.80;;
22230;SDS011;11284;48.086;-1.652;2022-12-16T01:01:02;9.32;;;3.88;;
22230;SDS011;11284;48.086;-1.652;2022-12-16T01:03:28;7.47;;;3.90;;
22230;SDS011;11284;48.086;-1.652;2022-12-16T01:05:54;7.55;;;4.35;;
22230;SDS011;11284;48.086;-1.652;2022-12-16T01:08:20;7.30;;;4.10;;
22230;SDS011;11284;48.086;-1.652;2022-12-16T01:10:50;7.28;;;4.05;;
22230;SDS011;11284;48.086;-1.652;2022-12-16T01:13:16;9.13;;;4.05;;
22230;SDS011;11284;48.086;-1.652;2022-12-16T01:15:42;8.43;;;4.40;;
22230;SDS011;11284;48.086;-1.652;2022-12-16T01:18:08;9.38;;;4.40;;
22230;SDS011;11284;48.086;-1.652;2022-12-16T01:20:35;10.32;;;4.60;;
22230;SDS011;11284;48.086;-1.652;2022-12-16T01:23:02;6.72;;;4.00;;
22230;SDS011;11284;48.086;-1.652;2022-12-16T01:25:28;9.02;;;4.18;;
22230;SDS011;11284;48.086;-1.652;2022-12-16T01:27:54;7.93;;;4.25;;
22230;SDS011;11284;48.086;-1.652;2022-12-16T01:30:20;8.73;;;4.30;;
22230;SDS011;11284;48.086;-1.652;2022-12-16T01:32:46;8.88;;;4.35;;
22230;SDS011;11284;48.086;-1.652;2022-12-16T01:35:13;9.63;;;4.80;;
22230;SDS011;11284;48.086;-1.652;2022-12-16T01:37:39;8.70;;;4.30;;
22230;SDS011;11284;48.086;-1.652;2022-12-16T01:40:05;8.55;;;4.18;;
22230;SDS011;11284;48.086;-1.652;2022-12-16T01:42:31;9.60;;;4.53;;
22230;SDS011;11284;48.086;-1.652;2022-12-16T01:45:20;8.65;;;4.18;;
22230;SDS011;11284;48.086;-1.652;2022-12-16T01:47:43;7.45;;;4.07;;
22230;SDS011;11284;48.086;-1.652;2022-12-16T01:50:11;8.55;;;4.75;;
22230;SDS011;11284;48.086;-1.652;2022-12-16T01:52:40;7.82;;;4.30;;
22230;SDS011;11284;48.086;-1.652;2022-12-16T01:55:12;7.38;;;4.35;;
22230;SDS011;11284;48.086;-1.652;2022-12-16T01:57:47;8.75;;;4.20;;
22230;SDS011;11284;48.086;-1.652;2022-12-16T02:00:13;9.07;;;4.72;;
22230;SDS011;11284;48.086;-1.652;2022-12-16T02:02:41;8.25;;;4.45;;
22230;SDS011;11284;48.086;-1.652;2022-12-16T02:05:08;9.02;;;4.63;;
22230;SDS011;11284;48.086;-1.652;2022-12-16T02:11:10;11.02;;;4.80;;
22230;SDS011;11284;48.086;-1.652;2022-12-16T02:15:43;9.52;;;5.13;;
22230;SDS011;11284;48.086;-1.652;2022-12-16T02:30:58;8.68;;;5.20;;
22230;SDS011;11284;48.086;-1.652;2022-12-16T02:38:33;8.90;;;4.70;;
22230;SDS011;11284;48.086;-1.652;2022-12-16T02:41:00;10.50;;;5.15;;
22230;SDS011;11284;48.086;-1.652;2022-12-16T02:45:58;10.27;;;5.05;;
22230;SDS011;11284;48.086;-1.652;2022-12-16T02:48:25;9.70;;;5.20;;
22230;SDS011;11284;48.086;-1.652;2022-12-16T02:50:51;12.00;;;6.47;;
22230;SDS011;11284;48.086;-1.652;2022-12-16T02:53:18;11.65;;;5.78;;
22230;SDS011;11284;48.086;-1.652;2022-12-16T03:00:43;10.77;;;5.68;;
22230;SDS011;11284;48.086;-1.652;2022-12-16T03:03:15;8.27;;;5.15;;
22230;SDS011;11284;48.086;-1.652;2022-12-16T03:05:44;9.98;;;5.88;;
22230;SDS011;11284;48.086;-1.652;2022-12-16T03:08:16;10.50;;;5.55;;
22230;SDS011;11284;48.086;-1.652;2022-12-16T03:10:44;11.82;;;5.20;;
22230;SDS011;11284;48.086;-1.652;2022-12-16T03:13:11;12.70;;;5.88;;
22230;SDS011;11284;48.086;-1.652;2022-12-16T03:15:39;13.43;;;6.22;;
22230;SDS011;11284;48.086;-1.652;2022-12-16T03:18:07;9.40;;;5.60;;
22230;SDS011;11284;48.086;-1.652;2022-12-16T03:23:07;9.88;;;5.47;;
22230;SDS011;11284;48.086;-1.652;2022-12-16T03:25:35;11.52;;;5.90;;
22230;SDS011;11284;48.086;-1.652;2022-12-16T03:28:07;10.98;;;5.55;;
22230;SDS011;11284;48.086;-1.652;2022-12-16T03:30:37;11.98;;;6.32;;
22230;SDS011;11284;48.086;-1.652;2022-12-16T03:33:37;10.52;;;5.60;;
22230;SDS011;11284;48.086;-1.652;2022-12-16T03:35:57;9.82;;;6.10;;
22230;SDS011;11284;48.086;-1.652;2022-12-16T03:38:24;10.18;;;5.97;;
22230;SDS011;11284;48.086;-1.652;2022-12-16T03:40:51;11.02;;;6.28;;
22230;SDS011;11284;48.086;-1.652;2022-12-16T03:43:18;10.52;;;6.25;;
22230;SDS011;11284;48.086;-1.652;2022-12-16T03:45:44;9.02;;;5.70;;
22230;SDS011;11284;48.086;-1.652;2022-12-16T03:48:11;10.05;;;6.28;;
22230;SDS011;11284;48.086;-1.652;2022-12-16T03:50:37;9.82;;;6.13;;
22230;SDS011;11284;48.086;-1.652;2022-12-16T03:53:05;10.95;;;6.13;;
22230;SDS011;11284;48.086;-1.652;2022-12-16T03:55:31;9.43;;;6.00;;
22230;SDS011;11284;48.086;-1.652;2022-12-16T03:57:57;11.27;;;6.40;;
22230;SDS011;11284;48.086;-1.652;2022-12-16T04:00:24;12.43;;;5.93;;
22230;SDS011;11284;48.086;-1.652;2022-12-16T04:02:50;10.07;;;6.25;;
22230;SDS011;11284;48.086;-1.652;2022-12-16T04:05:16;10.88;;;6.68;;
22230;SDS011;11284;48.086;-1.652;2022-12-16T04:07:42;12.18;;;6.95;;
22230;SDS011;11284;48.086;-1.652;2022-12-16T04:10:08;10.73;;;6.45;;
22230;SDS011;11284;48.086;-1.652;2022-12-16T04:12:34;9.80;;;5.90;;
22230;SDS011;11284;48.086;-1.652;2022-12-16T04:15:19;9.77;;;5.65;;
22230;SDS011;11284;48.086;-1.652;2022-12-16T04:18:04;9.30;;;5.82;;
22230;SDS011;11284;48.086;-1.652;2022-12-16T04:20:53;12.13;;;6.78;;
22230;SDS011;11284;48.086;-1.652;2022-12-16T04:23:41;11.68;;;6.00;;
22230;SDS011;11284;48.086;-1.652;2022-12-16T04:26:28;10.38;;;6.22;;
22230;SDS011;11284;48.086;-1.652;2022-12-16T04:28:54;10.95;;;6.40;;
22230;SDS011;11284;48.086;-1.652;2022-12-16T04:31:20;11.73;;;6.55;;
22230;SDS011;11284;48.086;-1.652;2022-12-16T04:33:46;12.20;;;6.28;;
22230;SDS011;11284;48.086;-1.652;2022-12-16T04:36:31;14.50;;;6.35;;
22230;SDS011;11284;48.086;-1.652;2022-12-16T04:39:23;12.32;;;6.45;;
22230;SDS011;11284;48.086;-1.652;2022-12-16T04:42:08;11.10;;;6.43;;
22230;SDS011;11284;48.086;-1.652;2022-12-16T04:44:53;11.68;;;6.22;;
22230;SDS011;11284;48.086;-1.652;2022-12-16T04:47:37;11.70;;;6.50;;
22230;SDS011;11284;48.086;-1.652;2022-12-16T04:50:22;11.40;;;6.88;;
22230;SDS011;11284;48.086;-1.652;2022-12-16T04:53:06;13.50;;;6.55;;
22230;SDS011;11284;48.086;-1.652;2022-12-16T04:55:51;11.07;;;6.15;;
22230;SDS011;11284;48.086;-1.652;2022-12-16T04:58:36;13.90;;;6.75;;
22230;SDS011;11284;48.086;-1.652;2022-12-16T05:01:20;12.95;;;6.53;;
22230;SDS011;11284;48.086;-1.652;2022-12-16T05:04:05;11.50;;;6.40;;
22230;SDS011;11284;48.086;-1.652;2022-12-16T05:06:50;14.05;;;6.97;;
22230;SDS011;11284;48.086;-1.652;2022-12-16T05:09:34;10.98;;;6.45;;
22230;SDS011;11284;48.086;-1.652;2022-12-16T05:12:19;11.98;;;6.35;;
22230;SDS011;11284;48.086;-1.652;2022-12-16T05:15:03;12.10;;;6.38;;
22230;SDS011;11284;48.086;-1.652;2022-12-16T05:17:48;16.08;;;6.40;;
22230;SDS011;11284;48.086;-1.652;2022-12-16T05:20:33;10.23;;;6.35;;
22230;SDS011;11284;48.086;-1.652;2022-12-16T05:23:17;13.20;;;7.20;;
22230;SDS011;11284;48.086;-1.652;2022-12-16T05:26:02;12.55;;;6.43;;
22230;SDS011;11284;48.086;-1.652;2022-12-16T05:28:46;14.73;;;6.95;;
22230;SDS011;11284;48.086;-1.652;2022-12-16T05:31:31;13.25;;;6.72;;
22230;SDS011;11284;48.086;-1.652;2022-12-16T05:34:16;11.55;;;6.45;;
22230;SDS011;11284;48.086;-1.652;2022-12-16T05:37:00;11.60;;;6.53;;
22230;SDS011;11284;48.086;-1.652;2022-12-16T05:39:45;13.95;;;6.70;;
22230;SDS011;11284;48.086;-1.652;2022-12-16T05:42:30;13.50;;;6.93;;
22230;SDS011;11284;48.086;-1.652;2022-12-16T05:45:14;13.70;;;6.43;;
22230;SDS011;11284;48.086;-1.652;2022-12-16T05:47:59;14.77;;;6.93;;
22230;SDS011;11284;48.086;-1.652;2022-12-16T05:50:43;13.48;;;7.40;;
22230;SDS011;11284;48.086;-1.652;2022-12-16T05:53:28;13.93;;;7.10;;
22230;SDS011;11284;48.086;-1.652;2022-12-16T05:56:12;10.35;;;6.75;;
22230;SDS011;11284;48.086;-1.652;2022-12-16T05:58:57;11.50;;;6.90;;
22230;SDS011;11284;48.086;-1.652;2022-12-16T06:01:42;11.57;;;7.30;;
22230;SDS011;11284;48.086;-1.652;2022-12-16T06:04:26;13.68;;;7.35;;
22230;SDS011;11284;48.086;-1.652;2022-12-16T06:07:11;13.60;;;6.85;;
22230;SDS011;11284;48.086;-1.652;2022-12-16T06:10:03;12.93;;;7.13;;
22230;SDS011;11284;48.086;-1.652;2022-12-16T06:12:48;14.00;;;7.07;;
22230;SDS011;11284;48.086;-1.652;2022-12-16T06:15:32;13.65;;;7.20;;
22230;SDS011;11284;48.086;-1.652;2022-12-16T06:18:17;13.05;;;6.85;;
22230;SDS011;11284;48.086;-1.652;2022-12-16T06:21:02;14.00;;;7.28;;
22230;SDS011;11284;48.086;-1.652;2022-12-16T06:23:47;14.30;;;7.03;;
22230;SDS011;11284;48.086;-1.652;2022-12-16T06:26:32;12.80;;;7.82;;
22230;SDS011;11284;48.086;-1.652;2022-12-16T06:29:17;12.82;;;7.03;;
22230;SDS011;11284;48.086;-1.652;2022-12-16T06:32:01;12.38;;;7.20;;
22230;SDS011;11284;48.086;-1.652;2022-12-16T06:34:46;13.07;;;7.30;;
22230;SDS011;11284;48.086;-1.652;2022-12-16T06:37:30;10.90;;;7.15;;
22230;SDS011;11284;48.086;-1.652;2022-12-16T06:40:15;14.63;;;7.32;;
22230;SDS011;11284;48.086;-1.652;2022-12-16T06:43:00;13.05;;;7.85;;
22230;SDS011;11284;48.086;-1.652;2022-12-16T06:45:44;13.50;;;8.48;;
22230;SDS011;11284;48.086;-1.652;2022-12-16T06:48:29;14.70;;;8.45;;
22230;SDS011;11284;48.086;-1.652;2022-12-16T06:51:13;14.85;;;8.25;;
22230;SDS011;11284;48.086;-1.652;2022-12-16T06:53:58;16.48;;;8.48;;
22230;SDS011;11284;48.086;-1.652;2022-12-16T06:56:43;17.60;;;8.00;;
22230;SDS011;11284;48.086;-1.652;2022-12-16T06:59:27;19.55;;;8.75;;
22230;SDS011;11284;48.086;-1.652;2022-12-16T07:02:12;16.88;;;8.82;;
22230;SDS011;11284;48.086;-1.652;2022-12-16T07:04:56;17.83;;;9.02;;
22230;SDS011;11284;48.086;-1.652;2022-12-16T07:07:47;15.18;;;8.65;;
22230;SDS011;11284;48.086;-1.652;2022-12-16T07:10:33;15.68;;;8.98;;
22230;SDS011;11284;48.086;-1.652;2022-12-16T07:13:17;15.73;;;9.00;;
22230;SDS011;11284;48.086;-1.652;2022-12-16T07:16:02;16.90;;;9.43;;
22230;SDS011;11284;48.086;-1.652;2022-12-16T07:18:47;16.05;;;8.73;;
22230;SDS011;11284;48.086;-1.652;2022-12-16T07:21:31;14.73;;;8.65;;
22230;SDS011;11284;48.086;-1.652;2022-12-16T07:24:16;18.42;;;9.55;;
22230;SDS011;11284;48.086;-1.652;2022-12-16T07:27:01;18.20;;;8.80;;
22230;SDS011;11284;48.086;-1.652;2022-12-16T07:29:45;17.33;;;8.65;;
22230;SDS011;11284;48.086;-1.652;2022-12-16T07:32:44;16.50;;;9.27;;
22230;SDS011;11284;48.086;-1.652;2022-12-16T07:35:41;16.85;;;8.73;;
22230;SDS011;11284;48.086;-1.652;2022-12-16T07:38:26;15.52;;;9.13;;
22230;SDS011;11284;48.086;-1.652;2022-12-16T07:41:11;16.60;;;9.60;;
22230;SDS011;11284;48.086;-1.652;2022-12-16T07:44:06;14.98;;;9.32;;
22230;SDS011;11284;48.086;-1.652;2022-12-16T07:46:51;14.90;;;8.73;;
22230;SDS011;11284;48.086;-1.652;2022-12-16T07:49:35;16.00;;;9.95;;
22230;SDS011;11284;48.086;-1.652;2022-12-16T07:52:20;17.77;;;9.57;;
22230;SDS011;11284;48.086;-1.652;2022-12-16T07:55:04;16.30;;;9.43;;
22230;SDS011;11284;48.086;-1.652;2022-12-16T07:57:50;15.88;;;10.13;;
22230;SDS011;11284;48.086;-1.652;2022-12-16T08:00:35;16.67;;;9.77;;
22230;SDS011;11284;48.086;-1.652;2022-12-16T08:03:20;15.10;;;9.48;;
22230;SDS011;11284;48.086;-1.652;2022-12-16T08:06:04;18.05;;;10.68;;
22230;SDS011;11284;48.086;-1.652;2022-12-16T08:08:49;17.73;;;9.90;;
22230;SDS011;11284;48.086;-1.652;2022-12-16T08:11:34;18.98;;;10.20;;
22230;SDS011;11284;48.086;-1.652;2022-12-16T08:14:18;20.50;;;10.50;;
22230;SDS011;11284;48.086;-1.652;2022-12-16T08:17:03;20.20;;;10.68;;
22230;SDS011;11284;48.086;-1.652;2022-12-16T08:19:48;16.80;;;10.13;;
22230;SDS011;11284;48.086;-1.652;2022-12-16T08:22:32;18.33;;;9.93;;
22230;SDS011;11284;48.086;-1.652;2022-12-16T08:25:17;16.05;;;9.40;;
22230;SDS011;11284;48.086;-1.652;2022-12-16T08:28:01;15.43;;;9.88;;
22230;SDS011;11284;48.086;-1.652;2022-12-16T08:30:49;18.33;;;10.38;;
22230;SDS011;11284;48.086;-1.652;2022-12-16T08:33:35;14.75;;;9.45;;
22230;SDS011;11284;48.086;-1.652;2022-12-16T08:36:19;18.92;;;9.88;;
22230;SDS011;11284;48.086;-1.652;2022-12-16T08:39:04;22.20;;;10.63;;
22230;SDS011;11284;48.086;-1.652;2022-12-16T08:41:48;18.85;;;10.25;;
22230;SDS011;11284;48.086;-1.652;2022-12-16T08:44:33;18.95;;;10.02;;
22230;SDS011;11284;48.086;-1.652;2022-12-16T08:47:17;16.15;;;10.30;;
22230;SDS011;11284;48.086;-1.652;2022-12-16T08:50:02;16.45;;;10.77;;
22230;SDS011;11284;48.086;-1.652;2022-12-16T08:52:47;18.35;;;9.98;;
22230;SDS011;11284;48.086;-1.652;2022-12-16T08:55:32;20.65;;;10.85;;
22230;SDS011;11284;48.086;-1.652;2022-12-16T08:58:16;19.80;;;10.15;;
22230;SDS011;11284;48.086;-1.652;2022-12-16T09:01:01;16.42;;;9.63;;
22230;SDS011;11284;48.086;-1.652;2022-12-16T09:03:45;19.45;;;10.77;;
22230;SDS011;11284;48.086;-1.652;2022-12-16T09:06:30;17.55;;;10.40;;
22230;SDS011;11284;48.086;-1.652;2022-12-16T09:09:15;14.77;;;9.65;;
22230;SDS011;11284;48.086;-1.652;2022-12-16T09:12:00;17.88;;;10.30;;
22230;SDS011;11284;48.086;-1.652;2022-12-16T09:14:45;16.02;;;10.50;;
22230;SDS011;11284;48.086;-1.652;2022-12-16T09:17:29;16.92;;;10.57;;
22230;SDS011;11284;48.086;-1.652;2022-12-16T09:20:14;17.20;;;10.82;;
22230;SDS011;11284;48.086;-1.652;2022-12-16T09:23:02;20.20;;;11.18;;
22230;SDS011;11284;48.086;-1.652;2022-12-16T09:25:47;17.10;;;10.88;;
22230;SDS011;11284;48.086;-1.652;2022-12-16T09:28:32;19.65;;;11.30;;
22230;SDS011;11284;48.086;-1.652;2022-12-16T09:31:16;19.77;;;10.77;;
22230;SDS011;11284;48.086;-1.652;2022-12-16T09:34:01;21.85;;;11.23;;
22230;SDS011;11284;48.086;-1.652;2022-12-16T09:36:46;18.98;;;11.55;;
22230;SDS011;11284;48.086;-1.652;2022-12-16T09:39:30;18.67;;;10.93;;
22230;SDS011;11284;48.086;-1.652;2022-12-16T09:45:42;18.67;;;12.52;;
22230;SDS011;11284;48.086;-1.652;2022-12-16T09:48:50;18.17;;;11.23;;
22230;SDS011;11284;48.086;-1.652;2022-12-16T09:51:37;20.52;;;11.18;;
22230;SDS011;11284;48.086;-1.652;2022-12-16T09:54:22;18.92;;;11.68;;
22230;SDS011;11284;48.086;-1.652;2022-12-16T09:57:08;22.17;;;12.23;;
22230;SDS011;11284;48.086;-1.652;2022-12-16T09:59:54;22.05;;;11.38;;
22230;SDS011;11284;48.086;-1.652;2022-12-16T10:02:41;22.92;;;11.90;;
22230;SDS011;11284;48.086;-1.652;2022-12-16T10:06:04;18.55;;;12.02;;
22230;SDS011;11284;48.086;-1.652;2022-12-16T10:11:54;20.90;;;11.98;;
22230;SDS011;11284;48.086;-1.652;2022-12-16T10:14:55;17.98;;;12.02;;
22230;SDS011;11284;48.086;-1.652;2022-12-16T10:17:42;18.95;;;12.10;;
22230;SDS011;11284;48.086;-1.652;2022-12-16T10:20:34;17.23;;;11.10;;
22230;SDS011;11284;48.086;-1.652;2022-12-16T10:23:31;17.45;;;10.90;;
22230;SDS011;11284;48.086;-1.652;2022-12-16T10:26:19;19.67;;;10.95;;
22230;SDS011;11284;48.086;-1.652;2022-12-16T10:29:20;20.38;;;11.57;;
22230;SDS011;11284;48.086;-1.652;2022-12-16T10:32:11;17.40;;;10.57;;
22230;SDS011;11284;48.086;-1.652;2022-12-16T10:34:57;15.77;;;10.48;;
22230;SDS011;11284;48.086;-1.652;2022-12-16T10:40:46;15.52;;;9.85;;
22230;SDS011;11284;48.086;-1.652;2022-12-16T10:43:38;18.33;;;9.75;;
22230;SDS011;11284;48.086;-1.652;2022-12-16T10:46:24;17.88;;;10.40;;
22230;SDS011;11284;48.086;-1.652;2022-12-16T10:49:11;16.80;;;10.98;;
22230;SDS011;11284;48.086;-1.652;2022-12-16T10:51:57;17.60;;;9.90;;
22230;SDS011;11284;48.086;-1.652;2022-12-16T10:54:43;16.75;;;9.85;;
22230;SDS011;11284;48.086;-1.652;2022-12-16T10:57:37;17.45;;;9.75;;
22230;SDS011;11284;48.086;-1.652;2022-12-16T11:00:47;16.45;;;10.48;;
22230;SDS011;11284;48.086;-1.652;2022-12-16T11:03:32;15.10;;;9.18;;
22230;SDS011;11284;48.086;-1.652;2022-12-16T11:06:27;16.83;;;9.63;;
22230;SDS011;11284;48.086;-1.652;2022-12-16T11:09:13;14.32;;;9.82;;
22230;SDS011;11284;48.086;-1.652;2022-12-16T11:18:13;14.32;;;9.65;;
22230;SDS011;11284;48.086;-1.652;2022-12-16T11:24:03;15.48;;;8.93;;
22230;SDS011;11284;48.086;-1.652;2022-12-16T11:26:52;16.42;;;9.43;;
22230;SDS011;11284;48.086;-1.652;2022-12-16T11:29:51;13.65;;;8.88;;
22230;SDS011;11284;48.086;-1.652;2022-12-16T11:32:36;13.30;;;8.65;;
22230;SDS011;11284;48.086;-1.652;2022-12-16T11:35:24;19.83;;;10.85;;
22230;SDS011;11284;48.086;-1.652;2022-12-16T11:38:20;15.98;;;9.25;;
22230;SDS011;11284;48.086;-1.652;2022-12-16T11:41:05;14.20;;;9.07;;
22230;SDS011;11284;48.086;-1.652;2022-12-16T11:43:50;17.38;;;8.73;;
22230;SDS011;11284;48.086;-1.652;2022-12-16T11:46:36;17.58;;;9.38;;
22230;SDS011;11284;48.086;-1.652;2022-12-16T11:49:29;15.80;;;9.20;;
22230;SDS011;11284;48.086;-1.652;2022-12-16T11:52:15;14.57;;;7.07;;
22230;SDS011;11284;48.086;-1.652;2022-12-16T11:58:17;13.20;;;6.72;;
22230;SDS011;11284;48.086;-1.652;2022-12-16T12:01:08;13.63;;;7.50;;
22230;SDS011;11284;48.086;-1.652;2022-12-16T12:03:54;12.32;;;6.28;;
22230;SDS011;11284;48.086;-1.652;2022-12-16T12:06:49;14.45;;;6.85;;
22230;SDS011;11284;48.086;-1.652;2022-12-16T12:09:37;11.63;;;5.85;;
22230;SDS011;11284;48.086;-1.652;2022-12-16T12:15:13;10.70;;;6.13;;
22230;SDS011;11284;48.086;-1.652;2022-12-16T12:18:12;11.60;;;6.30;;
22230;SDS011;11284;48.086;-1.652;2022-12-16T12:21:01;16.48;;;6.80;;
22230;SDS011;11284;48.086;-1.652;2022-12-16T12:39:04;12.52;;;5.45;;
22230;SDS011;11284;48.086;-1.652;2022-12-16T12:44:47;13.30;;;5.68;;
22230;SDS011;11284;48.086;-1.652;2022-12-16T12:47:38;9.55;;;5.30;;
22230;SDS011;11284;48.086;-1.652;2022-12-16T12:50:28;13.40;;;5.18;;
22230;SDS011;11284;48.086;-1.652;2022-12-16T12:53:19;11.10;;;5.00;;
22230;SDS011;11284;48.086;-1.652;2022-12-16T12:59:19;8.98;;;4.55;;
22230;SDS011;11284;48.086;-1.652;2022-12-16T13:02:05;8.15;;;4.28;;
22230;SDS011;11284;48.086;-1.652;2022-12-16T13:04:56;10.35;;;4.35;;
22230;SDS011;11284;48.086;-1.652;2022-12-16T13:07:41;10.70;;;4.60;;
22230;SDS011;11284;48.086;-1.652;2022-12-16T13:10:45;10.90;;;4.35;;
22230;SDS011;11284;48.086;-1.652;2022-12-16T13:13:31;10.63;;;3.85;;
22230;SDS011;11284;48.086;-1.652;2022-12-16T13:17:01;9.63;;;3.90;;
22230;SDS011;11284;48.086;-1.652;2022-12-16T13:28:19;8.82;;;3.95;;
22230;SDS011;11284;48.086;-1.652;2022-12-16T13:31:04;11.35;;;4.20;;
22230;SDS011;11284;48.086;-1.652;2022-12-16T13:33:50;10.00;;;4.07;;
22230;SDS011;11284;48.086;-1.652;2022-12-16T13:36:35;9.05;;;4.03;;
22230;SDS011;11284;48.086;-1.652;2022-12-16T13:39:26;9.60;;;3.65;;
22230;SDS011;11284;48.086;-1.652;2022-12-16T13:42:34;9.85;;;4.00;;
22230;SDS011;11284;48.086;-1.652;2022-12-16T13:45:31;7.43;;;3.33;;
22230;SDS011;11284;48.086;-1.652;2022-12-16T13:48:30;9.05;;;3.20;;
22230;SDS011;11284;48.086;-1.652;2022-12-16T13:54:30;9.02;;;3.80;;
22230;SDS011;11284;48.086;-1.652;2022-12-16T13:57:17;7.68;;;3.60;;
22230;SDS011;11284;48.086;-1.652;2022-12-16T14:00:03;9.80;;;3.88;;
22230;SDS011;11284;48.086;-1.652;2022-12-16T14:02:59;12.75;;;3.70;;
22230;SDS011;11284;48.086;-1.652;2022-12-16T14:05:45;9.05;;;3.47;;
22230;SDS011;11284;48.086;-1.652;2022-12-16T14:08:31;9.75;;;3.75;;
22230;SDS011;11284;48.086;-1.652;2022-12-16T14:11:19;8.75;;;3.88;;
22230;SDS011;11284;48.086;-1.652;2022-12-16T14:14:08;8.02;;;3.38;;
22230;SDS011;11284;48.086;-1.652;2022-12-16T14:16:59;8.13;;;3.45;;
22230;SDS011;11284;48.086;-1.652;2022-12-16T14:25:18;7.25;;;3.53;;
22230;SDS011;11284;48.086;-1.652;2022-12-16T14:34:14;10.67;;;3.83;;
22230;SDS011;11284;48.086;-1.652;2022-12-16T14:36:59;8.50;;;4.30;;
22230;SDS011;11284;48.086;-1.652;2022-12-16T14:39:47;9.52;;;3.75;;
22230;SDS011;11284;48.086;-1.652;2022-12-16T14:42:32;9.85;;;3.40;;
22230;SDS011;11284;48.086;-1.652;2022-12-16T14:45:33;9.15;;;2.80;;
22230;SDS011;11284;48.086;-1.652;2022-12-16T14:57:03;6.55;;;2.83;;
22230;SDS011;11284;48.086;-1.652;2022-12-16T15:00:03;9.02;;;2.83;;
22230;SDS011;11284;48.086;-1.652;2022-12-16T15:02:48;7.15;;;2.45;;
22230;SDS011;11284;48.086;-1.652;2022-12-16T15:05:34;9.30;;;2.72;;
22230;SDS011;11284;48.086;-1.652;2022-12-16T15:08:20;8.43;;;2.40;;
22230;SDS011;11284;48.086;-1.652;2022-12-16T15:11:05;8.98;;;2.47;;
22230;SDS011;11284;48.086;-1.652;2022-12-16T15:13:54;7.32;;;2.60;;
22230;SDS011;11284;48.086;-1.652;2022-12-16T15:16:41;8.43;;;2.45;;
22230;SDS011;11284;48.086;-1.652;2022-12-16T15:19:27;5.82;;;2.40;;
22230;SDS011;11284;48.086;-1.652;2022-12-16T15:22:15;10.38;;;2.72;;
22230;SDS011;11284;48.086;-1.652;2022-12-16T15:25:00;8.95;;;3.50;;
22230;SDS011;11284;48.086;-1.652;2022-12-16T15:27:54;8.85;;;3.83;;
22230;SDS011;11284;48.086;-1.652;2022-12-16T15:33:31;8.13;;;2.90;;
22230;SDS011;11284;48.086;-1.652;2022-12-16T15:39:27;6.82;;;2.20;;
22230;SDS011;11284;48.086;-1.652;2022-12-16T15:42:20;6.97;;;2.38;;
22230;SDS011;11284;48.086;-1.652;2022-12-16T15:45:14;9.48;;;2.75;;
22230;SDS011;11284;48.086;-1.652;2022-12-16T15:48:00;6.35;;;2.45;;
22230;SDS011;11284;48.086;-1.652;2022-12-16T15:50:51;5.85;;;2.40;;
22230;SDS011;11284;48.086;-1.652;2022-12-16T15:53:36;6.35;;;2.38;;
22230;SDS011;11284;48.086;-1.652;2022-12-16T15:56:26;12.70;;;3.05;;
22230;SDS011;11284;48.086;-1.652;2022-12-16T15:59:20;11.82;;;2.83;;
22230;SDS011;11284;48.086;-1.652;2022-12-16T16:02:09;12.80;;;3.08;;
22230;SDS011;11284;48.086;-1.652;2022-12-16T16:04:57;8.68;;;2.72;;
22230;SDS011;11284;48.086;-1.652;2022-12-16T16:07:42;10.35;;;2.92;;
22230;SDS011;11284;48.086;-1.652;2022-12-16T16:10:31;8.98;;;2.80;;
22230;SDS011;11284;48.086;-1.652;2022-12-16T16:13:15;8.05;;;3.13;;
22230;SDS011;11284;48.086;-1.652;2022-12-16T16:16:00;10.57;;;3.95;;
22230;SDS011;11284;48.086;-1.652;2022-12-16T16:18:46;13.63;;;4.72;;
22230;SDS011;11284;48.086;-1.652;2022-12-16T16:21:31;11.40;;;5.05;;
22230;SDS011;11284;48.086;-1.652;2022-12-16T16:24:15;10.07;;;4.85;;
22230;SDS011;11284;48.086;-1.652;2022-12-16T16:27:01;13.00;;;6.03;;
22230;SDS011;11284;48.086;-1.652;2022-12-16T16:29:45;11.20;;;5.57;;
22230;SDS011;11284;48.086;-1.652;2022-12-16T16:32:30;17.33;;;7.72;;
22230;SDS011;11284;48.086;-1.652;2022-12-16T16:35:15;16.55;;;7.10;;
22230;SDS011;11284;48.086;-1.652;2022-12-16T16:37:59;13.63;;;6.97;;
22230;SDS011;11284;48.086;-1.652;2022-12-16T16:40:44;15.40;;;8.43;;
22230;SDS011;11284;48.086;-1.652;2022-12-16T16:43:29;17.77;;;8.45;;
22230;SDS011;11284;48.086;-1.652;2022-12-16T16:49:08;18.42;;;10.15;;
22230;SDS011;11284;48.086;-1.652;2022-12-16T16:51:53;21.48;;;11.43;;
22230;SDS011;11284;48.086;-1.652;2022-12-16T16:54:38;18.88;;;10.50;;
22230;SDS011;11284;48.086;-1.652;2022-12-16T16:57:22;20.70;;;11.48;;
22230;SDS011;11284;48.086;-1.652;2022-12-16T17:00:08;17.75;;;10.32;;
22230;SDS011;11284;48.086;-1.652;2022-12-16T17:02:53;21.13;;;11.35;;
22230;SDS011;11284;48.086;-1.652;2022-12-16T17:05:38;19.52;;;10.55;;
22230;SDS011;11284;48.086;-1.652;2022-12-16T17:08:22;17.60;;;10.57;;
22230;SDS011;11284;48.086;-1.652;2022-12-16T17:11:17;19.63;;;10.52;;
22230;SDS011;11284;48.086;-1.652;2022-12-16T17:14:02;16.40;;;10.73;;
22230;SDS011;11284;48.086;-1.652;2022-12-16T17:16:46;15.38;;;10.23;;
22230;SDS011;11284;48.086;-1.652;2022-12-16T17:19:31;18.60;;;10.20;;
22230;SDS011;11284;48.086;-1.652;2022-12-16T17:22:16;19.60;;;10.40;;
22230;SDS011;11284;48.086;-1.652;2022-12-16T17:25:00;21.52;;;10.98;;
22230;SDS011;11284;48.086;-1.652;2022-12-16T17:27:45;19.50;;;11.90;;
22230;SDS011;11284;48.086;-1.652;2022-12-16T17:30:30;18.85;;;11.10;;
22230;SDS011;11284;48.086;-1.652;2022-12-16T17:33:14;20.63;;;11.75;;
22230;SDS011;11284;48.086;-1.652;2022-12-16T17:36:01;25.13;;;12.30;;
22230;SDS011;11284;48.086;-1.652;2022-12-16T17:38:45;22.95;;;12.85;;
22230;SDS011;11284;48.086;-1.652;2022-12-16T17:41:31;23.63;;;12.80;;
22230;SDS011;11284;48.086;-1.652;2022-12-16T17:44:16;28.80;;;18.05;;
22230;SDS011;11284;48.086;-1.652;2022-12-16T17:47:01;26.63;;;17.17;;
22230;SDS011;11284;48.086;-1.652;2022-12-16T17:49:46;22.40;;;12.77;;
22230;SDS011;11284;48.086;-1.652;2022-12-16T17:52:31;22.98;;;13.02;;